createdAt,value
2018-06-10T00:01:34.260Z,18.70
2018-06-10T00:04:02.840Z,18.80
2018-06-10T00:06:30.341Z,18.80
2018-06-10T00:08:57.836Z,18.80
2018-06-10T00:11:25.482Z,18.70
2018-06-10T00:13:52.968Z,18.70
2018-06-10T00:16:20.422Z,18.60
2018-06-10T00:18:47.900Z,18.60
2018-06-10T00:21:15.493Z,18.60
2018-06-10T00:23:42.990Z,18.60
2018-06-10T00:26:10.508Z,18.60
2018-06-10T00:28:43.650Z,18.50
2018-06-10T00:31:11.038Z,18.50
2018-06-10T00:33:38.520Z,18.40
2018-06-10T00:36:06.713Z,18.50
2018-06-10T00:38:34.178Z,18.50
2018-06-10T00:41:01.697Z,18.50
2018-06-10T00:43:29.258Z,18.50
2018-06-10T00:45:56.840Z,18.50
2018-06-10T00:48:24.289Z,18.50
2018-06-10T00:50:51.836Z,18.50
2018-06-10T00:53:19.393Z,18.50
2018-06-10T00:55:46.885Z,18.60
2018-06-10T00:58:14.351Z,18.60
2018-06-10T01:00:41.813Z,18.50
2018-06-10T01:03:09.380Z,18.60
2018-06-10T01:05:36.965Z,18.50
2018-06-10T01:08:04.524Z,18.50
2018-06-10T01:10:32.040Z,18.40
2018-06-10T01:12:59.571Z,18.40
2018-06-10T01:15:27.027Z,18.40
2018-06-10T01:17:54.494Z,18.40
2018-06-10T01:20:21.883Z,18.40
2018-06-10T01:22:49.393Z,18.40
2018-06-10T01:25:16.885Z,18.40
2018-06-10T01:27:44.314Z,18.40
2018-06-10T01:30:11.799Z,18.30
2018-06-10T01:32:39.199Z,18.30
2018-06-10T01:35:06.680Z,18.30
2018-06-10T01:37:34.199Z,18.10
2018-06-10T01:40:01.726Z,18.00
2018-06-10T01:42:29.231Z,17.90
2018-06-10T01:44:56.702Z,18.00
2018-06-10T01:47:24.106Z,17.90
2018-06-10T01:49:51.587Z,17.90
2018-06-10T01:52:19.084Z,17.90
2018-06-10T01:54:46.567Z,18.00
2018-06-10T01:57:14.031Z,17.90
2018-06-10T01:59:41.477Z,18.00
2018-06-10T02:02:08.983Z,18.00
2018-06-10T02:04:36.407Z,18.10
2018-06-10T02:07:04.038Z,18.00
2018-06-10T02:09:31.512Z,18.00
2018-06-10T02:11:59.101Z,18.20
2018-06-10T02:14:26.617Z,18.20
2018-06-10T02:16:54.056Z,18.20
2018-06-10T02:19:21.503Z,18.20
2018-06-10T02:21:48.976Z,18.20
2018-06-10T02:24:16.411Z,18.10
2018-06-10T02:26:43.799Z,18.10
2018-06-10T02:29:11.245Z,18.10
2018-06-10T02:31:38.761Z,18.10
2018-06-10T02:34:06.252Z,18.20
2018-06-10T02:36:33.800Z,18.10
2018-06-10T02:39:01.223Z,18.20
2018-06-10T02:41:28.664Z,18.20
2018-06-10T02:43:56.261Z,18.20
2018-06-10T02:46:23.815Z,18.20
2018-06-10T02:48:51.219Z,18.20
2018-06-10T02:51:18.687Z,18.20
2018-06-10T02:53:46.100Z,18.00
2018-06-10T02:58:41.081Z,18.10
2018-06-10T03:01:08.624Z,18.20
2018-06-10T03:03:36.096Z,18.10
2018-06-10T03:06:03.715Z,18.10
2018-06-10T03:08:31.196Z,18.20
2018-06-10T03:10:58.727Z,18.20
2018-06-10T03:13:26.215Z,18.20
2018-06-10T03:15:53.698Z,18.10
2018-06-10T03:18:21.174Z,18.20
2018-06-10T03:20:48.710Z,18.20
2018-06-10T03:23:16.191Z,18.20
2018-06-10T03:25:43.677Z,18.10
2018-06-10T03:28:11.322Z,18.00
2018-06-10T03:30:38.812Z,18.00
2018-06-10T03:33:06.277Z,18.00
2018-06-10T03:35:33.815Z,18.00
2018-06-10T03:38:01.347Z,18.00
2018-06-10T03:40:28.840Z,18.00
2018-06-10T03:42:56.372Z,18.00
2018-06-10T03:47:51.324Z,18.20
2018-06-10T03:50:18.711Z,18.20
2018-06-10T03:52:46.195Z,18.20
2018-06-10T03:55:13.753Z,18.30
2018-06-10T03:57:41.288Z,18.30
2018-06-10T04:00:08.772Z,18.20
2018-06-10T04:02:36.276Z,18.30
2018-06-10T04:05:03.736Z,18.20
2018-06-10T04:07:31.226Z,18.20
2018-06-10T04:09:58.812Z,18.10
2018-06-10T04:12:26.308Z,18.10
2018-06-10T04:14:53.844Z,18.20
2018-06-10T04:17:21.585Z,18.20
2018-06-10T04:19:49.124Z,18.30
2018-06-10T04:22:16.693Z,18.30
2018-06-10T04:24:44.231Z,18.40
2018-06-10T04:27:11.682Z,18.50
2018-06-10T04:29:39.209Z,18.50
2018-06-10T04:32:06.651Z,18.60
2018-06-10T04:34:34.201Z,18.60
2018-06-10T04:39:29.150Z,19.00
2018-06-10T04:41:56.545Z,19.00
2018-06-10T04:44:24.101Z,19.00
2018-06-10T04:46:51.666Z,18.90
2018-06-10T04:49:19.153Z,19.00
2018-06-10T04:51:46.593Z,18.90
2018-06-10T04:54:14.117Z,18.90
2018-06-10T04:56:41.540Z,19.00
2018-06-10T04:59:09.014Z,18.90
2018-06-10T05:01:36.518Z,18.90
2018-06-10T05:04:04.065Z,19.00
2018-06-10T05:06:31.546Z,19.20
2018-06-10T05:08:58.978Z,19.20
2018-06-10T05:11:26.417Z,19.30
2018-06-10T05:13:53.924Z,19.30
2018-06-10T05:16:21.487Z,19.30
2018-06-10T05:18:48.978Z,19.30
2018-06-10T05:21:16.577Z,19.40
2018-06-10T05:23:44.044Z,19.30
2018-06-10T05:26:11.523Z,19.40
2018-06-10T05:28:38.961Z,19.50
2018-06-10T05:31:06.551Z,19.50
2018-06-10T05:33:33.916Z,19.60
2018-06-10T05:36:01.423Z,19.60
2018-06-10T05:38:28.906Z,19.50
2018-06-10T05:40:56.371Z,19.30
2018-06-10T05:43:24.295Z,19.30
2018-06-10T05:45:51.835Z,19.30
2018-06-10T05:48:19.271Z,19.30
2018-06-10T05:50:46.691Z,19.30
2018-06-10T05:53:14.139Z,19.30
2018-06-10T05:55:41.617Z,19.40
2018-06-10T05:58:09.132Z,19.60
2018-06-10T06:00:36.556Z,19.70
2018-06-10T06:03:04.043Z,20.00
2018-06-10T06:05:31.613Z,20.20
2018-06-10T06:07:59.190Z,20.10
2018-06-10T06:10:26.692Z,20.20
2018-06-10T06:12:54.221Z,20.30
2018-06-10T06:15:21.734Z,20.40
2018-06-10T06:17:49.269Z,20.50
2018-06-10T06:20:16.782Z,20.60
2018-06-10T06:22:44.269Z,20.50
2018-06-10T06:25:11.868Z,20.60
2018-06-10T06:27:39.380Z,20.60
2018-06-10T06:30:06.968Z,20.70
2018-06-10T06:32:34.462Z,20.80
2018-06-10T06:35:01.918Z,21.00
2018-06-10T06:37:29.422Z,20.90
2018-06-10T06:39:56.902Z,20.90
2018-06-10T06:42:24.427Z,20.90
2018-06-10T06:44:51.920Z,21.00
2018-06-10T06:47:19.721Z,20.90
2018-06-10T06:49:47.381Z,20.90
2018-06-10T06:52:14.830Z,21.00
2018-06-10T06:54:42.272Z,21.10
2018-06-10T06:57:09.787Z,21.20
2018-06-10T06:59:37.294Z,21.20
2018-06-10T07:02:04.995Z,21.20
2018-06-10T07:04:32.485Z,21.30
2018-06-10T07:06:59.998Z,21.50
2018-06-10T07:09:27.520Z,21.80
2018-06-10T07:11:55.032Z,21.90
2018-06-10T07:14:22.472Z,21.70
2018-06-10T07:16:50.024Z,21.70
2018-06-10T07:19:17.478Z,21.80
2018-06-10T07:21:44.951Z,21.80
2018-06-10T07:24:12.433Z,21.80
2018-06-10T07:26:40.055Z,21.90
2018-06-10T07:29:07.484Z,22.00
2018-06-10T07:31:34.959Z,22.00
2018-06-10T07:34:02.461Z,21.80
2018-06-10T07:36:29.945Z,22.00
2018-06-10T07:38:57.425Z,22.10
2018-06-10T07:41:24.948Z,22.20
2018-06-10T07:46:19.925Z,22.00
2018-06-10T07:48:47.435Z,22.20
2018-06-10T07:51:14.921Z,22.40
2018-06-10T07:53:42.338Z,22.40
2018-06-10T07:58:37.166Z,22.70
2018-06-10T08:01:04.678Z,22.70
2018-06-10T08:03:32.116Z,22.70
2018-06-10T08:05:59.591Z,22.80
2018-06-10T08:08:27.139Z,22.80
2018-06-10T08:10:54.661Z,22.90
2018-06-10T08:13:22.126Z,23.50
2018-06-10T08:15:49.657Z,23.80
2018-06-10T08:18:17.227Z,23.80
2018-06-10T08:20:44.821Z,23.90
2018-06-10T08:23:12.368Z,24.10
2018-06-10T08:25:39.881Z,24.30
2018-06-10T08:28:07.352Z,23.80
2018-06-10T08:30:34.877Z,23.90
2018-06-10T08:33:02.467Z,24.10
2018-06-10T08:35:29.969Z,24.50
2018-06-10T08:37:57.553Z,24.40
2018-06-10T08:40:25.075Z,24.60
2018-06-10T08:42:52.613Z,24.60
2018-06-10T08:45:20.302Z,24.30
2018-06-10T08:47:47.869Z,24.50
2018-06-10T08:50:15.394Z,24.80
2018-06-10T08:52:42.948Z,25.10
2018-06-10T08:55:10.416Z,24.90
2018-06-10T08:57:37.814Z,24.60
2018-06-10T09:00:05.439Z,24.50
2018-06-10T09:02:32.906Z,24.70
2018-06-10T09:05:00.393Z,24.90
2018-06-10T09:07:28.719Z,25.10
2018-06-10T09:09:56.090Z,25.00
2018-06-10T09:12:23.580Z,25.20
2018-06-10T09:14:51.181Z,25.30
2018-06-10T09:17:18.596Z,25.50
2018-06-10T09:19:46.122Z,25.40
2018-06-10T09:22:13.627Z,25.70
2018-06-10T09:24:41.125Z,25.90
2018-06-10T09:27:08.629Z,26.10
2018-06-10T09:29:36.105Z,26.30
2018-06-10T09:32:03.647Z,26.30
2018-06-10T09:34:31.164Z,26.40
2018-06-10T09:36:58.669Z,26.40
2018-06-10T09:39:26.248Z,26.40
2018-06-10T09:41:53.727Z,26.40
2018-06-10T09:44:21.203Z,26.30
2018-06-10T09:46:48.646Z,26.30
2018-06-10T09:49:16.141Z,26.30
2018-06-10T09:51:43.702Z,26.50
2018-06-10T09:54:11.321Z,26.60
2018-06-10T09:56:38.817Z,26.70
2018-06-10T09:59:06.371Z,27.10
2018-06-10T10:01:33.871Z,27.20
2018-06-10T10:04:01.416Z,27.50
2018-06-10T10:06:28.858Z,27.30
2018-06-10T10:08:56.323Z,27.40
2018-06-10T10:11:23.861Z,27.30
2018-06-10T10:13:51.268Z,27.50
2018-06-10T10:16:19.741Z,27.70
2018-06-10T10:21:14.759Z,27.90
2018-06-10T10:23:42.339Z,28.00
2018-06-10T10:26:09.826Z,28.00
2018-06-10T10:28:37.385Z,28.10
2018-06-10T10:31:04.960Z,27.80
2018-06-10T10:33:32.476Z,27.90
2018-06-10T10:35:59.918Z,27.60
2018-06-10T10:38:27.481Z,27.50
2018-06-10T10:40:55.008Z,27.60
2018-06-10T10:43:22.466Z,27.90
2018-06-10T10:45:50.023Z,28.20
2018-06-10T10:48:17.552Z,28.20
2018-06-10T10:50:45.039Z,28.30
2018-06-10T10:53:12.523Z,28.30
2018-06-10T10:55:39.994Z,28.50
2018-06-10T10:58:07.561Z,28.70
2018-06-10T11:00:35.035Z,28.10
2018-06-10T11:03:02.477Z,28.20
2018-06-10T11:05:29.983Z,28.40
2018-06-10T11:07:57.458Z,28.50
2018-06-10T11:10:25.044Z,28.50
2018-06-10T11:12:52.541Z,28.20
2018-06-10T11:15:20.015Z,28.30
2018-06-10T11:17:47.546Z,28.20
2018-06-10T11:20:15.066Z,28.00
2018-06-10T11:22:42.505Z,27.90
2018-06-10T11:25:10.007Z,27.90
2018-06-10T11:27:37.504Z,28.10
2018-06-10T11:30:04.990Z,28.60
2018-06-10T11:32:32.496Z,28.80
2018-06-10T11:34:59.989Z,29.10
2018-06-10T11:37:27.580Z,29.10
2018-06-10T11:39:54.962Z,29.10
2018-06-10T11:42:22.531Z,29.40
2018-06-10T11:44:49.961Z,29.70
2018-06-10T11:47:17.374Z,29.80
2018-06-10T11:49:44.876Z,29.40
2018-06-10T11:54:39.869Z,29.80
2018-06-10T11:57:07.401Z,29.50
2018-06-10T11:59:34.844Z,29.00
2018-06-10T12:02:02.361Z,28.50
2018-06-10T12:04:29.884Z,28.80
2018-06-10T12:06:57.391Z,29.20
2018-06-10T12:09:25.090Z,29.20
2018-06-10T12:11:52.637Z,28.90
2018-06-10T12:14:20.428Z,28.50
2018-06-10T12:16:47.973Z,28.50
2018-06-10T12:19:15.411Z,28.20
2018-06-10T12:21:43.067Z,28.20
2018-06-10T12:24:10.613Z,28.50
2018-06-10T12:29:05.536Z,28.80
2018-06-10T12:31:33.236Z,28.80
2018-06-10T12:34:00.916Z,28.60
2018-06-10T12:36:28.407Z,28.20
2018-06-10T12:38:56.009Z,28.50
2018-06-10T12:41:23.675Z,28.60
2018-06-10T12:43:51.159Z,29.20
2018-06-10T12:46:18.677Z,29.20
2018-06-10T12:48:46.261Z,29.10
2018-06-10T12:51:13.930Z,29.40
2018-06-10T12:53:41.453Z,29.20
2018-06-10T12:56:08.928Z,29.00
2018-06-10T12:58:36.398Z,28.90
2018-06-10T13:01:03.880Z,28.70
2018-06-10T13:03:31.401Z,29.00
2018-06-10T13:05:59.033Z,29.00
2018-06-10T13:08:26.510Z,29.30
2018-06-10T13:10:54.068Z,29.30
2018-06-10T13:13:21.677Z,29.50
2018-06-10T13:15:49.218Z,29.90
2018-06-10T13:18:16.622Z,29.80
2018-06-10T13:20:44.051Z,30.10
2018-06-10T13:23:11.560Z,30.00
2018-06-10T13:25:39.060Z,29.70
2018-06-10T13:28:06.570Z,29.50
2018-06-10T13:30:33.947Z,29.70
2018-06-10T13:33:01.487Z,29.70
2018-06-10T13:35:28.948Z,29.70
2018-06-10T13:37:56.440Z,29.40
2018-06-10T13:40:23.988Z,29.70
2018-06-10T13:42:51.559Z,30.00
2018-06-10T13:45:19.145Z,30.20
2018-06-10T13:47:46.654Z,30.30
2018-06-10T13:50:14.173Z,30.50
2018-06-10T13:52:41.628Z,30.50
2018-06-10T13:55:09.106Z,30.60
2018-06-10T13:57:36.599Z,30.60
2018-06-10T14:00:04.506Z,30.90
2018-06-10T14:02:31.929Z,31.00
2018-06-10T14:04:59.473Z,30.70
2018-06-10T14:07:26.967Z,30.30
2018-06-10T14:09:54.387Z,30.00
2018-06-10T14:12:21.877Z,29.90
2018-06-10T14:14:49.402Z,29.80
2018-06-10T14:17:16.912Z,29.60
2018-06-10T14:19:44.453Z,29.50
2018-06-10T14:22:11.989Z,29.70
2018-06-10T14:24:39.501Z,29.80
2018-06-10T14:27:07.023Z,29.80
2018-06-10T14:29:34.502Z,29.80
2018-06-10T14:32:02.090Z,29.70
2018-06-10T14:36:57.055Z,29.50
2018-06-10T14:39:24.435Z,29.70
2018-06-10T14:41:52.041Z,29.80
2018-06-10T14:44:19.496Z,30.10
2018-06-10T14:46:47.005Z,29.80
2018-06-10T14:49:14.425Z,29.70
2018-06-10T14:51:41.923Z,29.70
2018-06-10T14:54:09.392Z,29.70
2018-06-10T14:59:04.312Z,29.60
2018-06-10T15:01:31.822Z,29.50
2018-06-10T15:03:59.341Z,29.50
2018-06-10T15:06:26.825Z,29.40
2018-06-10T15:08:54.302Z,29.20
2018-06-10T15:11:21.799Z,29.10
2018-06-10T15:13:49.292Z,29.00
2018-06-10T15:16:16.933Z,29.00
2018-06-10T15:18:44.477Z,28.90
2018-06-10T15:21:11.967Z,29.00
2018-06-10T15:23:39.455Z,28.90
2018-06-10T15:26:07.013Z,28.80
2018-06-10T15:28:34.522Z,28.70
2018-06-10T15:31:02.039Z,28.70
2018-06-10T15:33:29.490Z,28.60
2018-06-10T15:35:56.945Z,28.60
2018-06-10T15:38:24.521Z,28.60
2018-06-10T15:40:51.970Z,28.60
2018-06-10T15:43:19.515Z,28.40
2018-06-10T15:45:47.099Z,28.50
2018-06-10T15:48:14.639Z,28.50
2018-06-10T15:50:42.110Z,28.50
2018-06-10T15:53:09.642Z,28.30
2018-06-10T15:55:37.254Z,28.20
2018-06-10T15:58:04.748Z,28.10
2018-06-10T16:00:32.748Z,28.10
2018-06-10T16:03:00.301Z,27.80
2018-06-10T16:05:27.745Z,27.80
2018-06-10T16:07:55.396Z,27.70
2018-06-10T16:10:23.012Z,27.70
2018-06-10T16:12:50.526Z,27.70
2018-06-10T16:15:17.992Z,27.60
2018-06-10T16:17:45.512Z,27.20
2018-06-10T16:20:12.944Z,27.30
2018-06-10T16:22:40.533Z,27.30
2018-06-10T16:25:08.110Z,27.50
2018-06-10T16:27:35.561Z,27.50
2018-06-10T16:30:04.087Z,27.50
2018-06-10T16:32:31.505Z,27.50
2018-06-10T16:34:58.978Z,27.50
2018-06-10T16:37:26.489Z,27.50
2018-06-10T16:42:21.396Z,27.40
2018-06-10T16:44:48.847Z,27.40
2018-06-10T16:47:16.300Z,27.50
2018-06-10T16:49:43.799Z,27.50
2018-06-10T16:52:11.312Z,27.40
2018-06-10T16:54:38.734Z,27.40
2018-06-10T16:57:06.135Z,27.40
2018-06-10T16:59:33.636Z,27.40
2018-06-10T17:02:01.273Z,27.40
2018-06-10T17:04:28.747Z,27.40
2018-06-10T17:06:56.198Z,27.40
2018-06-10T17:11:51.175Z,27.20
2018-06-10T17:14:18.599Z,27.20
2018-06-10T17:16:46.131Z,27.20
2018-06-10T17:19:13.625Z,27.20
2018-06-10T17:21:41.236Z,27.20
2018-06-10T17:24:08.696Z,27.10
2018-06-10T17:26:36.188Z,27.10
2018-06-10T17:29:03.758Z,27.20
2018-06-10T17:31:31.318Z,27.00
2018-06-10T17:33:58.787Z,27.00
2018-06-10T17:36:26.385Z,27.00
2018-06-10T17:38:53.892Z,27.00
2018-06-10T17:41:21.471Z,26.90
2018-06-10T17:43:49.041Z,26.90
2018-06-10T17:46:16.528Z,26.90
2018-06-10T17:48:44.144Z,26.80
2018-06-10T17:51:11.816Z,26.90
2018-06-10T17:53:39.351Z,26.90
2018-06-10T17:56:06.845Z,26.90
2018-06-10T17:58:34.302Z,26.80
2018-06-10T18:01:01.895Z,26.60
2018-06-10T18:03:29.405Z,26.50
2018-06-10T18:05:56.870Z,26.50
2018-06-10T18:08:24.379Z,26.40
2018-06-10T18:10:51.889Z,26.40
2018-06-10T18:13:19.542Z,26.30
2018-06-10T18:15:47.103Z,26.30
2018-06-10T18:18:14.599Z,26.30
2018-06-10T18:20:42.099Z,26.30
2018-06-10T18:23:09.624Z,26.30
2018-06-10T18:25:37.079Z,26.20
2018-06-10T18:28:04.619Z,26.20
2018-06-10T18:30:32.125Z,26.20
2018-06-10T18:32:59.646Z,26.10
2018-06-10T18:35:27.157Z,26.10
2018-06-10T18:37:54.595Z,26.00
2018-06-10T18:40:22.239Z,25.90
2018-06-10T18:42:49.751Z,25.70
2018-06-10T18:45:17.293Z,25.60
2018-06-10T18:47:44.905Z,25.60
2018-06-10T18:50:13.323Z,25.50
2018-06-10T18:52:40.893Z,25.30
2018-06-10T18:55:08.508Z,25.20
2018-06-10T18:57:35.982Z,25.10
2018-06-10T19:00:03.937Z,25.00
2018-06-10T19:02:31.456Z,24.90
2018-06-10T19:04:59.051Z,24.80
2018-06-10T19:07:26.647Z,24.70
2018-06-10T19:09:54.176Z,24.60
2018-06-10T19:12:21.670Z,24.50
2018-06-10T19:14:49.114Z,24.50
2018-06-10T19:17:17.524Z,24.50
2018-06-10T19:19:45.072Z,24.40
2018-06-10T19:22:12.623Z,24.30
2018-06-10T19:24:40.097Z,24.20
2018-06-10T19:27:07.619Z,24.10
2018-06-10T19:29:35.068Z,24.00
2018-06-10T19:32:02.550Z,24.00
2018-06-10T19:34:36.880Z,23.80
2018-06-10T19:37:04.699Z,23.80
2018-06-10T19:39:32.168Z,23.80
2018-06-10T19:42:00.111Z,23.70
2018-06-10T19:44:27.671Z,23.50
2018-06-10T19:46:55.167Z,23.50
2018-06-10T19:49:22.661Z,23.60
2018-06-10T19:51:50.211Z,23.60
2018-06-10T19:54:18.025Z,23.60
2018-06-10T19:56:45.909Z,23.40
2018-06-10T19:59:13.470Z,23.50
2018-06-10T20:04:08.451Z,23.40
2018-06-10T20:06:35.944Z,23.20
2018-06-10T20:09:05.415Z,23.10
2018-06-10T20:11:32.931Z,23.10
2018-06-10T20:14:00.491Z,23.00
2018-06-10T20:16:27.997Z,22.90
2018-06-10T20:18:55.530Z,22.80
2018-06-10T20:21:22.994Z,22.80
2018-06-10T20:23:50.579Z,22.80
2018-06-10T20:26:18.075Z,22.70
2018-06-10T20:28:45.598Z,22.70
2018-06-10T20:31:13.098Z,22.70
2018-06-10T20:33:40.662Z,22.70
2018-06-10T20:36:08.129Z,22.70
2018-06-10T20:38:35.611Z,22.70
2018-06-10T20:41:03.110Z,22.70
2018-06-10T20:43:30.610Z,22.70
2018-06-10T20:45:58.114Z,22.70
2018-06-10T20:48:25.727Z,22.70
2018-06-10T20:50:53.196Z,22.70
2018-06-10T20:53:20.710Z,22.70
2018-06-10T20:55:48.269Z,22.60
2018-06-10T20:58:15.661Z,22.70
2018-06-10T21:00:43.276Z,22.60
2018-06-10T21:03:10.792Z,22.50
2018-06-10T21:05:38.282Z,22.50
2018-06-10T21:08:05.737Z,22.40
2018-06-10T21:10:33.284Z,22.30
2018-06-10T21:13:00.833Z,22.20
2018-06-10T21:15:28.313Z,22.20
2018-06-10T21:17:55.835Z,22.10
2018-06-10T21:20:23.329Z,21.90
2018-06-10T21:22:50.870Z,21.90
2018-06-10T21:25:18.306Z,21.90
2018-06-10T21:27:45.784Z,21.80
2018-06-10T21:30:13.290Z,21.90
2018-06-10T21:32:40.809Z,21.80
2018-06-10T21:35:08.239Z,21.80
2018-06-10T21:37:35.674Z,21.90
2018-06-10T21:40:03.155Z,21.80
2018-06-10T21:42:30.584Z,21.80
2018-06-10T21:44:58.091Z,21.70
2018-06-10T21:47:25.675Z,21.70
2018-06-10T21:49:53.237Z,21.70
2018-06-10T21:52:20.773Z,21.70
2018-06-10T21:54:48.270Z,21.70
2018-06-10T21:57:15.782Z,21.80
2018-06-10T21:59:43.272Z,21.80
2018-06-10T22:02:10.695Z,21.80
2018-06-10T22:04:38.150Z,21.80
2018-06-10T22:07:05.791Z,21.70
2018-06-10T22:09:33.274Z,21.70
2018-06-10T22:12:00.812Z,21.60
2018-06-10T22:14:28.348Z,21.50
2018-06-10T22:16:55.895Z,21.60
2018-06-10T22:19:23.368Z,21.60
2018-06-10T22:21:50.869Z,21.50
2018-06-10T22:24:18.404Z,21.40
2018-06-10T22:26:45.937Z,21.40
2018-06-10T22:29:13.432Z,21.30
2018-06-10T22:31:40.862Z,21.20
2018-06-10T22:34:08.285Z,21.20
2018-06-10T22:36:35.741Z,21.20
2018-06-10T22:39:05.318Z,21.20
2018-06-10T22:41:32.750Z,21.40
2018-06-10T22:44:00.285Z,21.30
2018-06-10T22:46:27.814Z,21.20
2018-06-10T22:48:55.247Z,21.10
2018-06-10T22:51:22.740Z,21.00
2018-06-10T22:54:53.424Z,21.00
2018-06-10T22:57:20.986Z,21.10
2018-06-10T22:59:48.435Z,21.00
2018-06-10T23:02:15.929Z,21.10
2018-06-10T23:04:43.372Z,21.10
2018-06-10T23:07:10.898Z,21.10
2018-06-10T23:09:38.433Z,21.10
2018-06-10T23:12:05.917Z,21.10
2018-06-10T23:14:33.446Z,21.10
2018-06-10T23:17:00.929Z,21.20
2018-06-10T23:19:28.480Z,21.00
2018-06-10T23:21:55.961Z,21.00
2018-06-10T23:24:23.397Z,20.90
2018-06-10T23:26:50.775Z,20.80
2018-06-10T23:29:18.211Z,20.80
2018-06-10T23:31:45.723Z,20.90
2018-06-10T23:34:13.229Z,20.80
2018-06-10T23:36:40.656Z,20.80
2018-06-10T23:41:35.554Z,20.80
2018-06-10T23:44:03.114Z,20.80
2018-06-10T23:46:30.540Z,20.90
2018-06-10T23:48:58.104Z,20.90
2018-06-10T23:51:25.645Z,20.90
2018-06-10T23:53:53.110Z,20.70
2018-06-10T23:56:20.683Z,20.70
2018-06-10T23:58:48.180Z,20.70
